Aviation Digital Data Service (ADDS)

Output produced by METARs form (1734 UTC 21 September 2019)
found at http://aviationweather.gov/metar/data/
 
KHUM 211650Z 13014KT 7SM BKN034 32/22 A3013
KHUM 211120Z 2112/2212 VRB04KT P6SM VCSH FEW030 SCT100 BKN250 
     FM211400 09008KT P6SM VCTS SCT030CB SCT080 
     FM220000 10007KT P6SM FEW030 FEW090 
     FM220500 VRB04KT P6SM FEW030 FEW250